CYLH

Lansdowne House Airport

Lansdowne House, Ontario, Canada
METAR CYLH 201600Z AUTO 04005KT 360V060 9SM CLR 14/07 A3018 RMK SLP230
Observed Flight Rules
Aug-20 @ 16:00 UTC (25 minutes ago) Visual Flight Rules
Wind Visibility Clouds
40° at 5 knots 9 miles
  • Clear skies
Temperatures Readings
Current 14°C / 57°F
Dewpoint 7°C / 45°F
Humidity 63%
Altimeter 30.18" Hg
Pressure 1023 hPa
Elevation 254
METAR CYLH 201600Z AUTO 04005KT 360V060 9SM CLR 14/07 A3018 RMK SLP230
Observed Flight Rules
Aug-20 @ 16:00 UTC
(25 minutes ago)
VFR
Wind Visibility
40° at 5 knots 9 miles
Clouds
  • Clear skies
Temperature Dewpoint
14°C / 57°F 7°C / 45°F
Humidity Altimeter Pressure
63% 30.18" Hg 1023 hPa